Overview Statistics Trail Chart Weather Telemetry Raw packets
 

This is the latest recevied weather packets stored in our database for station/object SV2RCS-13. If no packets are shown the sender has not sent any weather packets the latest 10 day(s).

<< 9 10 11 12 13 14 15 >>
Time Temp. Humidity Pressure Rain* Wind** Luminosity Snow
1788244542 31.11° C 32% 1012.9 hPa - - - -
1788243939 30.56° C 32% 1013 hPa - - - -
1788243339 30.56° C 33% 1013.1 hPa - - - -
1788242740 29.44° C 34% 1013.2 hPa - - - -
1788242139 28.89° C 37% 1013.4 hPa - - - -
1788241539 28.33° C 38% 1013.8 hPa - - - -
1788240939 28.33° C 39% 1013.6 hPa - - - -
1788240339 25.56° C 47% 1014.3 hPa - - - -
1788239739 25° C 50% 1014.4 hPa - - - -
1788239139 24.44° C 51% 1014.6 hPa - - - -
1788238540 23.89° C 51% 1014.7 hPa - - - -
1788237940 23.89° C 52% 1014.6 hPa - - - -
1788237339 23.89° C 53% 1014.5 hPa - - - -
1788236740 23.33° C 54% 1014.6 hPa - - - -
1788236140 23.33° C 54% 1014.4 hPa - - - -
1788235540 23.33° C 54% 1014.5 hPa - - - -
1788234940 22.78° C 54% 1014.5 hPa - - - -
1788234339 22.78° C 54% 1014.3 hPa - - - -
1788233746 22.78° C 53% 1014.3 hPa - - - -
1788233140 22.78° C 53% 1014.3 hPa - - - -
1788232539 22.78° C 53% 1014.2 hPa - - - -
1788231939 23.33° C 52% 1014.1 hPa - - - -
1788231339 23.33° C 53% 1014.2 hPa - - - -
1788230739 23.33° C 53% 1014 hPa - - - -
1788230139 23.33° C 53% 1014.2 hPa - - - -

* Rain since midnight (hover to see other rain measurements)
** Current wind speed in m/s (hover to see current wind gust speed)